Olympic National Park, WA

12:17 PM PST am 28. November 2014 (GMT -0800)
Lake Dawn | Change Station
CLOSE
Current Station
Persönliche Wetterstationen
Location: Port Angeles, WA
Höhe: 1864 ft
Wetterstationen in der Umgebung
aktive Warnung: Flood Warning, Areal Flood Watch aktiver Hinweis: Record Report

Höhe 1864 ft 48.04 °N, 123.43 °W | Updated 2 minutes ago

Regen
Regen
36.1 °F
gefühlte 36 °F
N
1.6
Wind Wechselnd Wind aus Nord
Gusts 2.2 mph

Heute
Max. -- | schwach -- °F
--% Regenrisiko
Gestern
Max. -- | schwach -- °F
Precip. -- inch
7:39 AM 4:24 PM
Erstes Viertel, 43% visible
Druck 29.51 inch
Sichtweite 10.0 Meilen
Wolken Few 4000 ft
Wolkig 7000 ft
Bedeckt 9000 ft
Windchill 36 °F
Taupunkt 36 °F
Feuchtigkeit 99%
Regen 0.81 inch
Schneehöhe Nicht verfügbar..
UV 0 von 12
Pollen .10 von 12
Luftqualität Nicht verfügbar..
Flu Activity Nicht verfügbar..
METAR KCLM 281953Z AUTO 27007KT 10SM FEW040 BKN070 OVC090 06/04 A2950 RMK AO2 RAE32 SLP991 P0005 T00610039 $

More Conditions Fewer Conditions

Druck 29.51 inch
Sichtweite 10.0 Meilen
Wolken Few 4000 ft
Wolkig 7000 ft
Bedeckt 9000 ft
Windchill 36 °F
Taupunkt 36 °F
Feuchtigkeit 99%
Regen 0.81 inch
Schneehöhe Nicht verfügbar..
UV 0 von 12
Pollen .10 von 12
Luftqualität Nicht verfügbar..
Flu Activity Nicht verfügbar..
METAR KCLM 281953Z AUTO 27007KT 10SM FEW040 BKN070 OVC090 06/04 A2950 RMK AO2 RAE32 SLP991 P0005 T00610039 $

More Conditions Fewer Conditions

10-Day Weather Forecast

Almanac

Astronomie

Nov. 28, 2014 Aufgang Untergang
Genaue Zeit
Bürgerliche Dämmerung
Nautische Dämmerung
Astronomische Dämmerung
Mond
Länge des sichtbaren Lichts
Tageslänge
Tomorrow will be .
, % of the Moon is Illuminated

Heutige Rekorde

State Highs State Lows

Community

WunderPhotos

Upload Photos

1,774,273 Fotos hochgeladen!

WunderBlogs® & News

Nearby

Luftqualität

  Luftqualität LQ Index Schadstoff
Not available.

Schneehöhe

Station Depth Höhe

Erdbebenaktivität

Stadt Distance Mag. Time & Date
Minimum magnitude displayed is 2.5.

küstennahe Wassertemperaturen

Ort Temperatur

Wetterstationen in der Umgebung